createdAt,value
2019-04-20T00:00:09.917Z,12.40
2019-04-20T00:02:48.015Z,12.40
2019-04-20T00:05:17.014Z,12.40
2019-04-20T00:07:50.087Z,12.30
2019-04-20T00:10:24.326Z,12.30
2019-04-20T00:13:09.073Z,12.20
2019-04-20T00:15:28.326Z,12.10
2019-04-20T00:18:04.649Z,12.00
2019-04-20T00:20:36.896Z,11.90
2019-04-20T00:23:28.826Z,11.90
2019-04-20T00:26:52.090Z,11.90
2019-04-20T00:29:17.620Z,11.80
2019-04-20T00:31:47.794Z,11.80
2019-04-20T00:34:13.905Z,11.80
2019-04-20T00:36:39.310Z,11.70
2019-04-20T00:39:13.154Z,11.70
2019-04-20T00:41:51.737Z,11.70
2019-04-20T00:44:23.350Z,11.70
2019-04-20T00:47:04.872Z,11.70
2019-04-20T00:49:41.336Z,11.60
2019-04-20T00:52:24.092Z,11.80
2019-04-20T00:54:32.658Z,11.80
2019-04-20T00:57:13.267Z,11.90
2019-04-20T01:00:03.330Z,12.00
2019-04-20T01:02:27.273Z,11.90
2019-04-20T01:05:04.495Z,11.80
2019-04-20T01:07:32.779Z,11.70
2019-04-20T01:10:06.849Z,11.60
2019-04-20T01:12:42.078Z,11.50
2019-04-20T01:15:25.577Z,11.40
2019-04-20T01:17:46.506Z,11.40
2019-04-20T01:20:19.233Z,11.40
2019-04-20T01:22:58.731Z,11.40
2019-04-20T01:25:32.324Z,11.30
2019-04-20T01:28:13.003Z,11.30
2019-04-20T01:30:39.786Z,11.20
2019-04-20T01:33:21.326Z,11.10
2019-04-20T01:35:56.863Z,11.00
2019-04-20T01:38:30.754Z,10.80
2019-04-20T01:40:48.447Z,10.90
2019-04-20T01:43:20.596Z,11.20
2019-04-20T01:46:01.359Z,11.30
2019-04-20T01:48:33.956Z,11.30
2019-04-20T01:51:11.834Z,11.30
2019-04-20T01:53:58.507Z,11.30
2019-04-20T01:56:27.501Z,11.20
2019-04-20T01:59:20.144Z,11.30
2019-04-20T02:02:11.638Z,11.20
2019-04-20T02:04:45.940Z,11.20
2019-04-20T02:07:18.294Z,11.20
2019-04-20T02:09:56.126Z,11.20
2019-04-20T02:12:28.446Z,11.40
2019-04-20T02:15:02.733Z,11.40
2019-04-20T02:17:40.218Z,11.60
2019-04-20T02:20:22.763Z,11.60
2019-04-20T02:22:56.937Z,11.60
2019-04-20T02:25:14.215Z,11.70
2019-04-20T02:27:51.747Z,11.80
2019-04-20T02:30:55.539Z,11.90
2019-04-20T02:33:37.565Z,11.80
2019-04-20T02:41:54.808Z,11.70
2019-04-20T02:47:08.460Z,11.70
2019-04-20T02:52:02.650Z,11.50
2019-04-20T02:57:28.359Z,11.00
2019-04-20T03:02:06.310Z,10.80
2019-04-20T03:04:34.128Z,10.70
2019-04-20T03:07:11.797Z,10.60
2019-04-20T03:09:50.522Z,10.60
2019-04-20T03:12:29.197Z,10.60
2019-04-20T03:14:52.777Z,10.50
2019-04-20T03:17:32.702Z,10.50
2019-04-20T03:19:57.274Z,10.50
2019-04-20T03:23:05.411Z,10.40
2019-04-20T03:25:20.937Z,10.40
2019-04-20T03:28:01.032Z,10.40
2019-04-20T03:33:46.624Z,10.20
2019-04-20T03:36:10.428Z,10.10
2019-04-20T03:38:27.302Z,10.10
2019-04-20T03:40:57.167Z,10.10
2019-04-20T03:43:15.883Z,10.00
2019-04-20T03:45:57.274Z,9.90
2019-04-20T03:48:41.427Z,9.80
2019-04-20T03:51:22.128Z,9.80
2019-04-20T03:54:05.161Z,9.70
2019-04-20T03:56:49.448Z,9.60
2019-04-20T03:59:50.695Z,9.50
2019-04-20T04:03:00.365Z,9.50
2019-04-20T04:05:23.568Z,9.60
2019-04-20T04:07:46.729Z,9.70
2019-04-20T04:10:29.384Z,9.70
2019-04-20T04:13:09.591Z,9.70
2019-04-20T04:15:50.294Z,9.70
2019-04-20T04:18:25.985Z,9.70
2019-04-20T04:21:01.431Z,9.60
2019-04-20T04:23:45.847Z,9.50
2019-04-20T04:26:17.631Z,9.40
2019-04-20T04:28:47.608Z,9.30
2019-04-20T04:31:25.984Z,9.20
2019-04-20T04:34:02.323Z,9.10
2019-04-20T04:36:37.579Z,9.10
2019-04-20T04:39:19.656Z,9.10
2019-04-20T04:41:50.968Z,9.20
2019-04-20T04:44:15.202Z,9.10
2019-04-20T04:46:40.615Z,9.20
2019-04-20T04:49:16.527Z,9.30
2019-04-20T04:51:51.483Z,9.40
2019-04-20T04:54:25.822Z,9.50
2019-04-20T04:56:50.374Z,9.50
2019-04-20T04:59:23.518Z,9.50
2019-04-20T05:01:58.361Z,9.40
2019-04-20T05:05:17.997Z,9.30
2019-04-20T05:07:43.876Z,9.30
2019-04-20T05:10:05.724Z,9.40
2019-04-20T05:12:39.373Z,9.40
2019-04-20T05:15:22.664Z,9.40
2019-04-20T05:18:07.221Z,9.50
2019-04-20T05:20:47.037Z,9.60
2019-04-20T05:23:28.088Z,9.80
2019-04-20T05:26:36.066Z,10.00
2019-04-20T05:29:06.646Z,10.10
2019-04-20T05:31:42.453Z,10.50
2019-04-20T05:34:26.261Z,10.60
2019-04-20T05:36:56.853Z,10.70
2019-04-20T05:39:50.652Z,10.80
2019-04-20T05:42:13.326Z,10.90
2019-04-20T05:44:48.637Z,10.90
2019-04-20T05:47:19.649Z,11.00
2019-04-20T05:49:49.963Z,11.10
2019-04-20T05:52:39.043Z,11.10
2019-04-20T05:55:07.404Z,11.20
2019-04-20T05:57:36.188Z,11.30
2019-04-20T06:00:08.343Z,11.40
2019-04-20T06:02:37.899Z,11.50
2019-04-20T06:05:16.053Z,11.60
2019-04-20T06:07:52.178Z,11.70
2019-04-20T06:10:26.013Z,11.80
2019-04-20T06:12:55.490Z,11.90
2019-04-20T06:15:54.203Z,12.00
2019-04-20T06:18:45.903Z,12.20
2019-04-20T06:21:35.397Z,12.30
2019-04-20T06:24:08.784Z,12.50
2019-04-20T06:29:16.023Z,12.70
2019-04-20T06:31:51.829Z,12.80
2019-04-20T06:34:33.363Z,12.90
2019-04-20T06:37:19.430Z,13.00
2019-04-20T06:39:40.661Z,13.20
2019-04-20T06:44:57.651Z,13.40
2019-04-20T06:47:24.446Z,13.40
2019-04-20T06:49:42.453Z,13.50
2019-04-20T06:52:45.325Z,13.60
2019-04-20T06:55:18.165Z,13.70
2019-04-20T06:57:45.065Z,13.80
2019-04-20T07:02:57.577Z,14.00
2019-04-20T07:05:45.728Z,14.20
2019-04-20T07:08:16.849Z,14.30
2019-04-20T07:10:37.787Z,14.40
2019-04-20T07:13:07.225Z,14.50
2019-04-20T07:15:48.713Z,14.60
2019-04-20T07:18:29.980Z,14.80
2019-04-20T07:21:37.822Z,14.90
2019-04-20T07:24:03.592Z,15.00
2019-04-20T07:26:37.350Z,15.10
2019-04-20T07:29:07.113Z,15.30
2019-04-20T07:31:36.810Z,15.40
2019-04-20T07:34:14.325Z,15.40
2019-04-20T07:36:50.262Z,15.70
2019-04-20T07:39:24.633Z,15.80
2019-04-20T07:42:00.369Z,16.00
2019-04-20T07:44:34.274Z,16.10
2019-04-20T07:47:07.491Z,16.20
2019-04-20T07:49:34.654Z,16.40
2019-04-20T07:51:50.629Z,16.50
2019-04-20T07:55:03.400Z,16.70
2019-04-20T07:57:14.927Z,16.90
2019-04-20T07:59:52.785Z,17.00
2019-04-20T08:02:57.269Z,17.10
2019-04-20T08:05:40.364Z,17.30
2019-04-20T08:08:25.337Z,17.40
2019-04-20T08:10:54.477Z,17.50
2019-04-20T08:16:06.634Z,17.70
2019-04-20T08:18:44.582Z,17.90
2019-04-20T08:21:16.728Z,18.10
2019-04-20T08:23:55.598Z,18.10
2019-04-20T08:26:10.843Z,18.20
2019-04-20T08:29:01.785Z,18.40
2019-04-20T08:32:10.335Z,18.60
2019-04-20T08:35:00.735Z,18.60
2019-04-20T08:37:17.319Z,18.70
2019-04-20T08:39:58.412Z,18.80
2019-04-20T08:42:22.536Z,19.10
2019-04-20T08:45:03.605Z,19.30
2019-04-20T08:47:47.384Z,19.40
2019-04-20T08:50:17.099Z,19.50
2019-04-20T08:55:14.590Z,19.70
2019-04-20T08:57:33.693Z,19.70
2019-04-20T09:00:09.214Z,20.00
2019-04-20T09:02:51.705Z,20.00
2019-04-20T09:05:30.337Z,20.10
2019-04-20T09:08:02.379Z,20.30
2019-04-20T09:10:42.606Z,20.40
2019-04-20T09:13:08.396Z,20.50
2019-04-20T09:15:32.304Z,20.70
2019-04-20T09:18:20.973Z,20.80
2019-04-20T09:20:52.956Z,20.80
2019-04-20T09:23:36.327Z,20.90
2019-04-20T09:26:29.408Z,21.10
2019-04-20T09:29:03.164Z,21.10
2019-04-20T09:31:47.244Z,21.20
2019-04-20T09:34:53.260Z,21.20
2019-04-20T09:37:33.851Z,21.30
2019-04-20T09:40:48.191Z,21.40
2019-04-20T09:43:08.801Z,21.70
2019-04-20T09:45:48.968Z,21.80
2019-04-20T09:48:31.236Z,22.10
2019-04-20T09:51:12.754Z,22.30
2019-04-20T09:53:39.018Z,22.20
2019-04-20T09:56:15.774Z,22.20
2019-04-20T09:58:57.714Z,22.10
2019-04-20T10:01:19.051Z,22.00
2019-04-20T10:03:40.840Z,22.20
2019-04-20T10:06:13.799Z,22.50
2019-04-20T10:08:51.412Z,22.80
2019-04-20T10:11:21.446Z,22.80
2019-04-20T10:13:54.400Z,23.00
2019-04-20T10:16:26.776Z,23.00
2019-04-20T10:18:58.858Z,23.20
2019-04-20T10:21:30.357Z,23.20
2019-04-20T10:24:02.834Z,23.30
2019-04-20T10:26:34.750Z,23.40
2019-04-20T10:29:07.736Z,23.50
2019-04-20T10:31:46.614Z,23.60
2019-04-20T10:34:15.692Z,23.80
2019-04-20T10:37:09.272Z,23.90
2019-04-20T10:39:42.738Z,24.00
2019-04-20T10:42:14.592Z,23.90
2019-04-20T10:44:47.134Z,24.00
2019-04-20T10:47:21.143Z,23.80
2019-04-20T10:49:53.289Z,24.00
2019-04-20T10:52:27.738Z,24.20
2019-04-20T10:55:00.629Z,24.20
2019-04-20T10:57:35.386Z,24.30
2019-04-20T11:00:08.295Z,24.40
2019-04-20T11:02:45.507Z,24.70
2019-04-20T11:05:15.344Z,24.80
2019-04-20T11:07:48.219Z,24.80
2019-04-20T11:10:26.746Z,24.90
2019-04-20T11:12:54.498Z,24.90
2019-04-20T11:15:26.584Z,24.90
2019-04-20T11:17:59.602Z,25.00
2019-04-20T11:20:33.274Z,25.20
2019-04-20T11:23:06.618Z,25.30
2019-04-20T11:25:40.019Z,25.30
2019-04-20T11:28:12.376Z,25.40
2019-04-20T11:30:45.983Z,25.40
2019-04-20T11:33:18.222Z,25.40
2019-04-20T11:35:51.482Z,25.30
2019-04-20T11:38:26.127Z,25.40
2019-04-20T11:41:08.349Z,25.40
2019-04-20T11:43:33.534Z,25.50
2019-04-20T11:46:06.742Z,25.40
2019-04-20T11:48:39.419Z,25.40
2019-04-20T11:51:11.709Z,25.60
2019-04-20T11:53:43.634Z,25.70
2019-04-20T11:56:22.679Z,25.70
2019-04-20T11:58:49.564Z,25.80
2019-04-20T12:01:38.124Z,26.00
2019-04-20T12:04:22.853Z,25.90
2019-04-20T12:06:43.362Z,26.00
2019-04-20T12:09:16.946Z,26.00
2019-04-20T12:12:02.156Z,26.00
2019-04-20T12:14:24.932Z,26.20
2019-04-20T12:16:57.581Z,26.20
2019-04-20T12:19:29.323Z,26.30
2019-04-20T12:22:03.585Z,26.40
2019-04-20T12:24:38.137Z,26.30
2019-04-20T12:27:12.462Z,26.50
2019-04-20T12:29:46.125Z,26.40
2019-04-20T12:32:18.108Z,26.20
2019-04-20T12:34:51.077Z,26.30
2019-04-20T12:37:22.962Z,26.40
2019-04-20T12:39:55.335Z,26.40
2019-04-20T12:42:28.756Z,26.20
2019-04-20T12:45:01.755Z,26.00
2019-04-20T12:47:35.449Z,26.00
2019-04-20T12:50:09.729Z,26.00
2019-04-20T12:52:41.742Z,26.20
2019-04-20T12:55:16.585Z,26.30
2019-04-20T12:57:50.314Z,26.30
2019-04-20T13:00:27.699Z,26.60
2019-04-20T13:03:01.122Z,26.20
2019-04-20T13:05:33.894Z,26.10
2019-04-20T13:08:06.220Z,26.00
2019-04-20T13:10:40.745Z,26.30
2019-04-20T13:13:34.584Z,26.10
2019-04-20T13:16:10.258Z,26.10
2019-04-20T13:19:05.674Z,26.00
2019-04-20T13:21:38.910Z,25.90
2019-04-20T13:24:13.532Z,25.60
2019-04-20T13:26:46.804Z,25.70
2019-04-20T13:29:19.296Z,25.80
2019-04-20T13:31:53.000Z,25.70
2019-04-20T13:34:26.434Z,25.60
2019-04-20T13:37:00.070Z,25.70
2019-04-20T13:39:35.143Z,26.00
2019-04-20T13:42:14.139Z,25.80
2019-04-20T13:44:41.568Z,25.70
2019-04-20T13:47:14.630Z,25.70
2019-04-20T13:49:49.246Z,25.60
2019-04-20T13:52:22.593Z,25.60
2019-04-20T13:54:55.926Z,25.40
2019-04-20T13:57:35.689Z,25.60
2019-04-20T14:00:28.294Z,25.60
2019-04-20T14:03:08.892Z,25.70
2019-04-20T14:05:40.790Z,25.50
2019-04-20T14:08:15.589Z,25.60
2019-04-20T14:10:49.200Z,25.80
2019-04-20T14:13:23.842Z,25.80
2019-04-20T14:15:55.440Z,25.70
2019-04-20T14:18:28.975Z,25.50
2019-04-20T14:21:00.666Z,25.60
2019-04-20T14:23:34.835Z,25.60
2019-04-20T14:26:07.074Z,25.70
2019-04-20T14:28:40.800Z,25.70
2019-04-20T14:31:14.094Z,25.80
2019-04-20T14:33:46.738Z,25.60
2019-04-20T14:36:19.180Z,25.50
2019-04-20T14:38:51.962Z,25.70
2019-04-20T14:41:24.338Z,25.90
2019-04-20T14:43:58.192Z,25.90
2019-04-20T14:46:32.009Z,25.90
2019-04-20T14:49:04.965Z,25.90
2019-04-20T14:51:39.537Z,26.00
2019-04-20T14:54:11.747Z,25.80
2019-04-20T14:56:45.380Z,25.80
2019-04-20T14:59:31.684Z,25.80
2019-04-20T15:02:12.696Z,25.50
2019-04-20T15:04:45.306Z,25.60
2019-04-20T15:07:20.517Z,25.60
2019-04-20T15:09:54.983Z,25.60
2019-04-20T15:12:38.774Z,25.60
2019-04-20T15:15:00.780Z,25.70
2019-04-20T15:17:47.857Z,25.40
2019-04-20T15:20:37.462Z,25.70
2019-04-20T15:23:35.354Z,25.70
2019-04-20T15:26:08.701Z,25.80
2019-04-20T15:28:42.179Z,25.70
2019-04-20T15:31:16.202Z,25.60
2019-04-20T15:33:48.834Z,25.10
2019-04-20T15:36:22.215Z,25.40
2019-04-20T15:38:55.220Z,25.30
2019-04-20T15:41:27.446Z,25.00
2019-04-20T15:44:01.728Z,25.10
2019-04-20T15:46:36.239Z,25.20
2019-04-20T15:49:10.939Z,25.10
2019-04-20T15:51:43.790Z,25.20
2019-04-20T15:54:16.036Z,25.40
2019-04-20T15:56:52.500Z,25.40
2019-04-20T15:59:24.259Z,25.50
2019-04-20T16:02:03.165Z,25.10
2019-04-20T16:05:00.640Z,25.10
2019-04-20T16:07:40.721Z,24.90
2019-04-20T16:10:09.553Z,25.00
2019-04-20T16:12:42.637Z,25.00
2019-04-20T16:15:15.749Z,24.70
2019-04-20T16:17:51.289Z,24.60
2019-04-20T16:20:23.554Z,24.60
2019-04-20T16:22:54.480Z,24.50
2019-04-20T16:25:35.376Z,24.30
2019-04-20T16:28:09.811Z,24.20
2019-04-20T16:30:41.249Z,24.20
2019-04-20T16:33:14.672Z,24.30
2019-04-20T16:35:50.178Z,24.20
2019-04-20T16:38:22.447Z,24.20
2019-04-20T16:40:54.686Z,24.20
2019-04-20T16:43:32.826Z,24.20
2019-04-20T16:46:01.362Z,24.10
2019-04-20T16:48:34.269Z,23.70
2019-04-20T16:51:06.914Z,23.50
2019-04-20T16:53:39.657Z,23.20
2019-04-20T16:56:12.718Z,22.90
2019-04-20T16:58:48.220Z,22.70
2019-04-20T17:01:19.404Z,22.70
2019-04-20T17:04:01.758Z,22.50
2019-04-20T17:06:26.385Z,22.40
2019-04-20T17:08:59.151Z,22.30
2019-04-20T17:11:34.106Z,22.30
2019-04-20T17:14:06.734Z,22.10
2019-04-20T17:16:39.608Z,22.00
2019-04-20T17:19:13.355Z,21.90
2019-04-20T17:21:46.519Z,21.70
2019-04-20T17:24:21.625Z,21.60
2019-04-20T17:27:19.085Z,21.60
2019-04-20T17:30:07.395Z,21.40
2019-04-20T17:32:41.043Z,21.30
2019-04-20T17:35:27.660Z,21.20
2019-04-20T17:37:53.424Z,21.10
2019-04-20T17:40:41.903Z,21.00
2019-04-20T17:43:08.348Z,20.90
2019-04-20T17:45:47.452Z,20.80
2019-04-20T17:48:18.882Z,20.70
2019-04-20T17:51:07.891Z,20.60
2019-04-20T17:53:53.746Z,20.50
2019-04-20T17:56:20.204Z,20.40
2019-04-20T17:58:52.282Z,20.20
2019-04-20T18:02:00.721Z,20.10
2019-04-20T18:04:48.836Z,19.90
2019-04-20T18:07:17.508Z,19.80
2019-04-20T18:09:49.354Z,19.70
2019-04-20T18:12:08.486Z,19.60
2019-04-20T18:14:47.960Z,19.50
2019-04-20T18:17:40.354Z,19.40
2019-04-20T18:20:05.200Z,19.30
2019-04-20T18:22:42.742Z,19.20
2019-04-20T18:25:29.351Z,19.10
2019-04-20T18:28:04.435Z,19.00
2019-04-20T18:30:48.034Z,18.90
2019-04-20T18:33:11.520Z,18.70
2019-04-20T18:35:47.219Z,18.60
2019-04-20T18:38:18.504Z,18.50
2019-04-20T18:41:00.068Z,18.40
2019-04-20T18:43:27.881Z,18.30
2019-04-20T18:46:17.637Z,18.10
2019-04-20T18:48:59.996Z,18.10
2019-04-20T18:51:05.941Z,18.00
2019-04-20T18:53:42.932Z,17.90
2019-04-20T18:56:19.018Z,17.80
2019-04-20T18:59:09.265Z,17.70
2019-04-20T19:01:45.493Z,17.60
2019-04-20T19:04:17.765Z,17.40
2019-04-20T19:06:52.321Z,17.30
2019-04-20T19:09:30.107Z,17.20
2019-04-20T19:12:02.888Z,17.00
2019-04-20T19:15:03.395Z,17.00
2019-04-20T19:17:58.980Z,16.90
2019-04-20T19:20:41.253Z,16.80
2019-04-20T19:23:14.748Z,16.70
2019-04-20T19:25:47.820Z,16.60
2019-04-20T19:28:26.073Z,16.50
2019-04-20T19:31:08.755Z,16.50
2019-04-20T19:33:46.886Z,16.40
2019-04-20T19:36:15.087Z,16.30
2019-04-20T19:38:49.458Z,16.20
2019-04-20T19:41:26.422Z,16.10
2019-04-20T19:43:56.323Z,16.10
2019-04-20T19:49:04.136Z,16.10
2019-04-20T19:51:49.372Z,16.20
2019-04-20T19:54:25.121Z,16.10
2019-04-20T19:56:56.312Z,16.10
2019-04-20T19:59:21.764Z,16.00
2019-04-20T20:01:45.331Z,15.90
2019-04-20T20:04:17.582Z,15.90
2019-04-20T20:06:57.496Z,15.80
2019-04-20T20:09:25.837Z,15.70
2019-04-20T20:12:04.995Z,15.60
2019-04-20T20:14:37.484Z,15.60
2019-04-20T20:17:28.064Z,15.50
2019-04-20T20:20:13.001Z,15.40
2019-04-20T20:22:25.500Z,15.30
2019-04-20T20:24:51.226Z,15.20
2019-04-20T20:27:34.009Z,15.10
2019-04-20T20:30:05.603Z,14.90
2019-04-20T20:32:47.008Z,14.80
2019-04-20T20:35:13.209Z,14.70
2019-04-20T20:37:45.704Z,14.60
2019-04-20T20:40:19.909Z,14.50
2019-04-20T20:42:56.318Z,14.40
2019-04-20T20:45:29.778Z,14.30
2019-04-20T20:48:15.504Z,14.20
2019-04-20T20:50:51.018Z,14.10
2019-04-20T20:53:15.809Z,14.00
2019-04-20T20:55:44.004Z,13.80
2019-04-20T20:58:21.203Z,13.80
2019-04-20T21:01:00.579Z,13.70
2019-04-20T21:03:28.018Z,13.60
2019-04-20T21:05:54.051Z,13.50
2019-04-20T21:08:25.891Z,13.40
2019-04-20T21:10:57.912Z,13.40
2019-04-20T21:13:36.592Z,13.30
2019-04-20T21:16:13.462Z,13.10
2019-04-20T21:18:54.095Z,12.90
2019-04-20T21:21:31.454Z,12.90
2019-04-20T21:23:56.728Z,12.80
2019-04-20T21:26:29.892Z,12.70
2019-04-20T21:28:55.583Z,12.50
2019-04-20T21:31:29.223Z,12.30
2019-04-20T21:34:01.919Z,12.20
2019-04-20T21:36:34.844Z,12.10
2019-04-20T21:39:16.511Z,12.20
2019-04-20T21:41:49.645Z,12.30
2019-04-20T21:44:24.373Z,12.30
2019-04-20T21:46:54.692Z,12.30
2019-04-20T21:49:38.768Z,12.30
2019-04-20T21:52:06.533Z,12.60
2019-04-20T21:54:38.238Z,12.70
2019-04-20T21:57:12.942Z,12.70
2019-04-20T21:59:48.547Z,12.70
2019-04-20T22:02:21.977Z,12.60
2019-04-20T22:04:51.854Z,12.40
2019-04-20T22:07:24.528Z,12.30
2019-04-20T22:09:56.877Z,12.20
2019-04-20T22:12:39.881Z,12.10
2019-04-20T22:15:15.118Z,12.00
2019-04-20T22:17:40.806Z,11.90
2019-04-20T22:20:20.118Z,11.90
2019-04-20T22:22:59.638Z,11.80
2019-04-20T22:25:39.266Z,11.70
2019-04-20T22:27:55.684Z,11.60
2019-04-20T22:30:26.406Z,11.60
2019-04-20T22:33:04.037Z,11.50
2019-04-20T22:35:42.535Z,11.40
2019-04-20T22:38:17.251Z,11.30
2019-04-20T22:40:49.262Z,11.30
2019-04-20T22:43:26.196Z,11.20
2019-04-20T22:45:57.210Z,11.20
2019-04-20T22:48:29.178Z,11.20
2019-04-20T22:51:22.099Z,11.20
2019-04-20T22:53:48.551Z,11.10
2019-04-20T22:56:26.841Z,11.10
2019-04-20T22:58:55.612Z,11.00
2019-04-20T23:01:27.488Z,11.00
2019-04-20T23:03:50.691Z,10.90
2019-04-20T23:06:25.306Z,10.80
2019-04-20T23:09:03.197Z,10.80
2019-04-20T23:11:35.833Z,10.70
2019-04-20T23:14:10.847Z,10.70
2019-04-20T23:16:47.211Z,10.90
2019-04-20T23:19:29.012Z,11.00
2019-04-20T23:21:57.235Z,11.10
2019-04-20T23:24:25.170Z,11.20
2019-04-20T23:26:57.429Z,11.30
2019-04-20T23:29:32.818Z,11.20
2019-04-20T23:32:06.355Z,11.10
2019-04-20T23:34:38.904Z,10.90
2019-04-20T23:37:16.048Z,10.70
2019-04-20T23:39:47.331Z,10.60
2019-04-20T23:42:23.954Z,10.50
2019-04-20T23:45:07.754Z,10.40
2019-04-20T23:47:47.859Z,10.40
2019-04-20T23:50:37.189Z,10.40
2019-04-20T23:53:18.188Z,10.30
2019-04-20T23:55:29.765Z,10.30
2019-04-20T23:58:06.727Z,10.10
